Colma, California
Current Conditions -  °F | °C
As of 5:56 PM on Sunday 25 Jan 2015 (Local Time) from KSFO Reporting Station
Clear Clear  
Wind Chill: 56°   Ceiling: Unl
Heat Index: 56°   Visibility: 10mi
Dew Point: 54°   Wind: 0mph
Humidity: 93%   Direction: NA
Pressure: 30.01"   Gusts: NA
Location:  37.6927°N, 122.447°W
Report Text: KSFO 260156Z 00000KT 10SM CLR 13/12 A3001 RMK AO2 SLP163 T01330122
Loading
Personal Weather Stations






























Interactive Weather Map New forecast layout! Learn more

10-Day Weather Forecast

Advertisements
Track Severe Weather on mobile